< < Back
Terminal Aerodrome Forecast


Current Version              Previous Versions:   1  2  3  4  5  6  7  8  9  

Terminal Aerodrome Forecast

765
FTUS44 KMRX 210532
TAFTYS
TAF
KTYS 210532Z 2106/2206 VRB03KT P6SM SCT250
     FM211400 24007KT P6SM SCT040 BKN250
     FM211900 25013G20KT P6SM VCTS BKN040CB
      TEMPO 2122/2202 3SM SHRA BR BKN035 OVC100
     FM220200 32006KT P6SM SCT035 BKN100=



Latest METAR

098
SAUS80 KWBC 211800
MTRTYS
METAR KTYS 211753Z 23014KT 10SM BKN037 OVC100 27/18 A2996 RMK AO2 SLP135
T02670178 10278 20178 58018


USA.gov is the U.S. government's official web portal to all federal, state and local government web resources and services.